Time;durP1;ratioP1;P1;durP2;ratioP2;P2;SDS_P1;SDS_P2;PMS_P1;PMS_P2;Temp;Humidity;BMP_temperature;BMP_pressure;BME280_temperature;BME280_humidity;BME280_pressure;Samples;Min_cycle;Max_cycle;Signal;HPM_P1;HPM_P2
2024/02/23 00:01:41;;;;;;;13.30;7.00;;;;;;;;;;134880;1304;22085;-78
2024/02/23 00:04:44;;;;;;;12.00;5.90;;;;;;;;;;134884;1298;22140;-78
2024/02/23 00:07:47;;;;;;;13.30;5.90;;;;;;;;;;134874;1304;22507;-78
2024/02/23 00:10:49;;;;;;;11.20;5.90;;;;;;;;;;134889;1304;22574;-78
2024/02/23 00:13:52;;;;;;;10.20;6.20;;;;;;;;;;134861;1304;22128;-78
2024/02/23 00:16:54;;;;;;;7.20;5.70;;;;;;;;;;134883;1304;22098;-78
2024/02/23 00:19:57;;;;;;;15.40;5.60;;;;;;;;;;134863;1299;22563;-78
2024/02/23 00:23:00;;;;;;;11.40;5.60;;;;;;;;;;134850;1304;22086;-78
2024/02/23 00:26:03;;;;;;;11.50;6.10;;;;;;;;;;134855;1304;22166;-78
2024/02/23 00:29:05;;;;;;;14.10;5.90;;;;;;;;;;134855;1304;22107;-79
2024/02/23 00:32:08;;;;;;;8.00;5.20;;;;;;;;;;134856;1304;22106;-78
2024/02/23 00:35:10;;;;;;;13.40;5.30;;;;;;;;;;134863;1304;22096;-78
2024/02/23 00:38:13;;;;;;;8.50;6.00;;;;;;;;;;134860;1304;22071;-79
2024/02/23 00:41:15;;;;;;;22.10;6.20;;;;;;;;;;134864;1304;22113;-78
2024/02/23 00:44:18;;;;;;;16.50;5.10;;;;;;;;;;134840;1304;22035;-78
2024/02/23 00:47:20;;;;;;;20.00;5.00;;;;;;;;;;134868;1304;22558;-78
2024/02/23 00:50:23;;;;;;;15.70;5.20;;;;;;;;;;134866;1304;22454;-79
2024/02/23 00:53:26;;;;;;;14.30;5.30;;;;;;;;;;134863;1304;22152;-78
2024/02/23 00:56:28;;;;;;;10.40;5.70;;;;;;;;;;134841;1304;22172;-78
2024/02/23 00:59:31;;;;;;;14.80;6.00;;;;;;;;;;134846;1304;22076;-77
2024/02/23 01:02:33;;;;;;;28.50;5.90;;;;;;;;;;134875;1304;22069;-79
2024/02/23 01:05:37;;;;;;;10.90;5.40;;;;;;;;;;134854;1304;22087;-78
2024/02/23 01:08:40;;;;;;;12.10;5.60;;;;;;;;;;134876;1304;22083;-79
2024/02/23 01:11:43;;;;;;;24.80;6.20;;;;;;;;;;134881;1304;22163;-78
2024/02/23 01:14:48;;;;;;;11.70;4.90;;;;;;;;;;134867;1304;22073;-76
2024/02/23 01:17:50;;;;;;;16.00;5.30;;;;;;;;;;134852;1304;22061;-77
2024/02/23 01:20:53;;;;;;;9.60;5.00;;;;;;;;;;134850;1304;22112;-77
2024/02/23 01:23:57;;;;;;;6.30;4.90;;;;;;;;;;134845;1304;22126;-77
2024/02/23 01:26:59;;;;;;;9.40;5.60;;;;;;;;;;134806;1304;22348;-76
2024/02/23 01:30:02;;;;;;;20.60;5.90;;;;;;;;;;134911;1304;22089;-76
2024/02/23 01:33:04;;;;;;;13.10;5.80;;;;;;;;;;135023;1304;22089;-77
2024/02/23 01:36:07;;;;;;;17.70;5.60;;;;;;;;;;135042;1304;22097;-77
2024/02/23 01:39:10;;;;;;;14.20;5.00;;;;;;;;;;135052;1301;22104;-76
2024/02/23 01:42:13;;;;;;;17.10;5.30;;;;;;;;;;134969;1304;22092;-76
2024/02/23 01:45:15;;;;;;;19.00;5.80;;;;;;;;;;134931;1304;22452;-78
2024/02/23 01:48:18;;;;;;;9.90;5.00;;;;;;;;;;134854;1304;22085;-76
2024/02/23 01:51:20;;;;;;;7.00;3.90;;;;;;;;;;134844;1304;22071;-78
2024/02/23 01:54:23;;;;;;;13.20;4.60;;;;;;;;;;134775;1304;22217;-77
2024/02/23 01:57:26;;;;;;;7.70;4.70;;;;;;;;;;134849;1304;22092;-77
2024/02/23 02:00:28;;;;;;;10.30;4.10;;;;;;;;;;134862;1304;22315;-77
2024/02/23 02:03:31;;;;;;;5.60;4.10;;;;;;;;;;134856;1304;22625;-76
2024/02/23 02:06:34;;;;;;;7.60;4.20;;;;;;;;;;134836;1304;22135;-78
2024/02/23 02:09:37;;;;;;;4.60;3.40;;;;;;;;;;134876;1304;22073;-78
2024/02/23 02:12:39;;;;;;;5.50;3.80;;;;;;;;;;134859;1304;22114;-78
2024/02/23 02:15:44;;;;;;;5.00;3.50;;;;;;;;;;134885;1304;22127;-76
2024/02/23 02:18:47;;;;;;;11.80;4.00;;;;;;;;;;134841;1304;22623;-78
2024/02/23 02:21:49;;;;;;;11.60;4.10;;;;;;;;;;134762;1304;22055;-77
2024/02/23 02:24:52;;;;;;;;;;;;;;;;;;134811;1304;22496;-78
2024/02/23 02:27:54;;;;;;;8.40;3.80;;;;;;;;;;134853;1304;22157;-77
2024/02/23 02:30:57;;;;;;;6.20;4.30;;;;;;;;;;134853;1304;22124;-75
2024/02/23 02:33:59;;;;;;;8.30;4.30;;;;;;;;;;134871;1303;22163;-77
2024/02/23 02:37:02;;;;;;;10.90;4.60;;;;;;;;;;134835;1304;22467;-77
2024/02/23 02:40:04;;;;;;;10.70;5.20;;;;;;;;;;134848;1304;22154;-78
2024/02/23 02:43:07;;;;;;;5.00;4.10;;;;;;;;;;134855;1304;22103;-77
2024/02/23 02:46:09;;;;;;;6.10;4.40;;;;;;;;;;134885;1292;22241;-77
2024/02/23 02:49:12;;;;;;;5.20;3.90;;;;;;;;;;134858;1304;22095;-76
2024/02/23 02:52:14;;;;;;;7.00;4.50;;;;;;;;;;134849;1304;22138;-78
2024/02/23 02:55:17;;;;;;;6.60;3.60;;;;;;;;;;134864;1304;22132;-77
2024/02/23 02:58:19;;;;;;;6.60;3.60;;;;;;;;;;134864;1304;22082;-78
2024/02/23 03:01:22;;;;;;;19.70;4.20;;;;;;;;;;134894;1304;22117;-78
2024/02/23 03:04:24;;;;;;;6.90;4.10;;;;;;;;;;134911;1304;22562;-78
2024/02/23 03:07:27;;;;;;;10.90;4.20;;;;;;;;;;134899;1304;22056;-80
2024/02/23 03:10:29;;;;;;;12.60;4.00;;;;;;;;;;134912;1304;22134;-78
2024/02/23 03:13:32;;;;;;;5.40;4.40;;;;;;;;;;134946;1304;22064;-78
2024/02/23 03:16:36;;;;;;;4.20;3.40;;;;;;;;;;134896;1304;22108;-78
2024/02/23 03:19:38;;;;;;;4.80;3.60;;;;;;;;;;134907;1304;22155;-78
2024/02/23 03:22:41;;;;;;;5.10;3.60;;;;;;;;;;134906;1304;22180;-78
2024/02/23 03:25:43;;;;;;;6.60;5.20;;;;;;;;;;134895;1304;22160;-79
2024/02/23 03:28:48;;;;;;;7.30;4.20;;;;;;;;;;134924;1304;22082;-78
2024/02/23 03:31:51;;;;;;;4.30;3.30;;;;;;;;;;134925;1304;22545;-79
2024/02/23 03:34:53;;;;;;;18.30;3.80;;;;;;;;;;134940;1304;22575;-78
2024/02/23 03:37:56;;;;;;;10.00;4.00;;;;;;;;;;134956;1304;22060;-77
2024/02/23 03:40:58;;;;;;;9.20;3.60;;;;;;;;;;134937;1304;22083;-78
2024/02/23 03:44:01;;;;;;;5.30;3.80;;;;;;;;;;134967;1304;22068;-77
2024/02/23 03:47:03;;;;;;;5.70;3.80;;;;;;;;;;134922;1304;22134;-78
2024/02/23 03:50:06;;;;;;;7.60;3.70;;;;;;;;;;134924;1304;22077;-77
2024/02/23 03:53:08;;;;;;;7.20;3.80;;;;;;;;;;134918;1304;22193;-78
2024/02/23 03:56:11;;;;;;;8.60;3.50;;;;;;;;;;134880;1304;22120;-78
2024/02/23 03:59:14;;;;;;;5.40;2.70;;;;;;;;;;134871;1304;22074;-77
2024/02/23 04:02:16;;;;;;;5.60;3.60;;;;;;;;;;134895;1304;22631;-78
2024/02/23 04:05:19;;;;;;;5.70;3.90;;;;;;;;;;134884;1304;22643;-78
2024/02/23 04:08:21;;;;;;;7.20;4.00;;;;;;;;;;134873;1304;22169;-78
2024/02/23 04:11:24;;;;;;;7.40;3.80;;;;;;;;;;134866;1304;22595;-78
2024/02/23 04:14:26;;;;;;;4.00;3.60;;;;;;;;;;134874;1304;22258;-79
2024/02/23 04:17:29;;;;;;;6.80;3.40;;;;;;;;;;134874;1304;22123;-78
2024/02/23 04:20:32;;;;;;;6.70;3.50;;;;;;;;;;134781;1304;22162;-78
2024/02/23 04:23:35;;;;;;;5.30;3.60;;;;;;;;;;134801;1304;22151;-78
2024/02/23 04:26:37;;;;;;;5.10;3.10;;;;;;;;;;134880;1304;22156;-80
2024/02/23 04:29:40;;;;;;;6.80;4.00;;;;;;;;;;134886;1304;22157;-76
2024/02/23 04:32:44;;;;;;;6.20;3.80;;;;;;;;;;134917;1304;22070;-77
2024/02/23 04:35:46;;;;;;;4.50;3.60;;;;;;;;;;134917;1304;22097;-78
2024/02/23 04:38:49;;;;;;;;;;;;;;;;;;134330;1304;22029;-76
2024/02/23 04:44:44;;;;;;;6.60;3.40;;;;;;;;;;133101;1302;545160;-75
2024/02/23 04:47:46;;;;;;;5.60;3.90;;;;;;;;;;136260;1285;22558;-75
2024/02/23 04:50:49;;;;;;;8.90;3.80;;;;;;;;;;136632;1284;22928;-77
2024/02/23 04:53:51;;;;;;;7.20;3.40;;;;;;;;;;136336;1284;22954;-75
2024/02/23 04:56:54;;;;;;;6.10;4.10;;;;;;;;;;135888;1282;197600;-76
2024/02/23 04:59:56;;;;;;;12.00;3.90;;;;;;;;;;136429;1268;24753;-77
2024/02/23 05:02:59;;;;;;;5.70;3.70;;;;;;;;;;136945;1279;22240;-77
2024/02/23 05:06:02;;;;;;;7.30;4.50;;;;;;;;;;136201;1279;22309;-77
2024/02/23 05:09:05;;;;;;;10.00;4.70;;;;;;;;;;137052;1279;22209;-77
2024/02/23 05:12:08;;;;;;;11.10;4.10;;;;;;;;;;136996;1279;22044;-77
2024/02/23 05:15:10;;;;;;;8.10;4.50;;;;;;;;;;137043;1279;22206;-76
2024/02/23 05:18:13;;;;;;;8.90;4.90;;;;;;;;;;136731;1275;22231;-77
2024/02/23 05:21:15;;;;;;;6.30;4.20;;;;;;;;;;137350;1275;22297;-78
2024/02/23 05:24:18;;;;;;;9.80;4.90;;;;;;;;;;137377;1275;22338;-76
2024/02/23 05:27:20;;;;;;;9.20;4.40;;;;;;;;;;136758;1275;22412;-76
2024/02/23 05:30:23;;;;;;;10.00;4.50;;;;;;;;;;137420;1275;22356;-77
2024/02/23 05:33:25;;;;;;;9.70;5.10;;;;;;;;;;137401;1275;22306;-77
2024/02/23 05:36:28;;;;;;;6.80;4.40;;;;;;;;;;137401;1275;22326;-78
2024/02/23 05:39:31;;;;;;;7.20;4.40;;;;;;;;;;137239;1275;22273;-77
2024/02/23 05:42:33;;;;;;;7.10;4.70;;;;;;;;;;137253;1275;22271;-78
2024/02/23 05:45:36;;;;;;;7.60;4.30;;;;;;;;;;137369;1275;22201;-77
2024/02/23 05:48:38;;;;;;;7.30;4.40;;;;;;;;;;137349;1275;22343;-76
2024/02/23 05:51:41;;;;;;;6.40;4.30;;;;;;;;;;137390;1265;22265;-77
2024/02/23 05:54:44;;;;;;;10.20;7.70;;;;;;;;;;136865;1275;22261;-77
2024/02/23 05:57:46;;;;;;;14.70;9.30;;;;;;;;;;137370;1275;22202;-77
2024/02/23 06:00:49;;;;;;;15.40;6.50;;;;;;;;;;137389;1275;22269;-77
2024/02/23 06:03:53;;;;;;;20.50;6.00;;;;;;;;;;137366;1275;22184;-79
2024/02/23 06:06:55;;;;;;;8.80;5.60;;;;;;;;;;137448;1275;22186;-79
2024/02/23 06:09:58;;;;;;;12.30;4.50;;;;;;;;;;137423;1275;22293;-78
2024/02/23 06:13:01;;;;;;;12.00;5.10;;;;;;;;;;137383;1275;22822;-79
2024/02/23 06:16:04;;;;;;;22.60;7.30;;;;;;;;;;137439;1275;22820;-78
2024/02/23 06:19:06;;;;;;;11.70;6.00;;;;;;;;;;137387;1275;22719;-77
2024/02/23 06:22:09;;;;;;;9.20;4.90;;;;;;;;;;137422;1275;22582;-78
2024/02/23 06:25:12;;;;;;;12.40;5.10;;;;;;;;;;137429;1275;22206;-77
2024/02/23 06:28:14;;;;;;;6.30;5.40;;;;;;;;;;137409;1275;22310;-77
2024/02/23 06:31:17;;;;;;;7.20;4.80;;;;;;;;;;137382;1275;22101;-78
2024/02/23 06:34:19;;;;;;;11.80;5.30;;;;;;;;;;137359;1275;22243;-76
2024/02/23 06:37:22;;;;;;;10.30;5.50;;;;;;;;;;137339;1275;22894;-79
2024/02/23 06:40:25;;;;;;;7.40;5.30;;;;;;;;;;137351;1275;22807;-79
2024/02/23 06:43:30;;;;;;;8.50;5.70;;;;;;;;;;137327;1275;22804;-78
2024/02/23 06:46:33;;;;;;;8.90;5.40;;;;;;;;;;137397;1275;22244;-78
2024/02/23 06:49:35;;;;;;;12.10;5.90;;;;;;;;;;137400;1275;22328;-79
2024/02/23 06:52:38;;;;;;;10.90;7.00;;;;;;;;;;137413;1275;22108;-78
2024/02/23 06:55:41;;;;;;;21.30;12.60;;;;;;;;;;137386;1275;22387;-79
2024/02/23 07:02:36;;;;;;;12.80;7.80;;;;;;;;;;137286;1275;22275;-79
2024/02/23 07:05:38;;;;;;;10.30;7.80;;;;;;;;;;137438;1275;22173;-78
2024/02/23 07:08:41;;;;;;;9.50;7.10;;;;;;;;;;137400;1275;22373;-78
2024/02/23 07:11:45;;;;;;;8.50;6.20;;;;;;;;;;137400;1275;22458;-78
2024/02/23 07:14:47;;;;;;;8.20;5.90;;;;;;;;;;137173;1275;23011;-79
2024/02/23 07:17:50;;;;;;;7.80;6.20;;;;;;;;;;137245;1275;22246;-78
2024/02/23 07:20:52;;;;;;;9.60;5.30;;;;;;;;;;136643;1275;22232;-78
2024/02/23 07:23:56;;;;;;;10.70;6.10;;;;;;;;;;137248;1275;22543;-79
2024/02/23 07:26:58;;;;;;;8.30;6.40;;;;;;;;;;137395;1275;22246;-79
2024/02/23 07:30:02;;;;;;;8.80;6.30;;;;;;;;;;137416;1275;22331;-79
2024/02/23 07:33:05;;;;;;;6.60;6.00;;;;;;;;;;136825;1275;22413;-80
2024/02/23 07:36:08;;;;;;;9.30;6.10;;;;;;;;;;137093;1275;22529;-78
2024/02/23 07:39:11;;;;;;;7.40;6.10;;;;;;;;;;136955;1275;22403;-76
2024/02/23 07:42:18;;;;;;;9.60;6.40;;;;;;;;;;136422;1275;22816;-78
2024/02/23 07:45:20;;;;;;;10.40;7.50;;;;;;;;;;136782;1271;24228;-78
2024/02/23 07:48:23;;;;;;;9.30;6.30;;;;;;;;;;137247;1275;22203;-77
2024/02/23 07:51:25;;;;;;;6.90;6.00;;;;;;;;;;136501;1264;22219;-79
2024/02/23 07:54:28;;;;;;;12.80;7.20;;;;;;;;;;137472;1275;22320;-80
2024/02/23 07:57:31;;;;;;;10.10;7.40;;;;;;;;;;137436;1275;22993;-78
2024/02/23 08:00:37;;;;;;;23.40;16.70;;;;;;;;;;137370;1275;22253;-79
2024/02/23 08:03:40;;;;;;;11.90;8.50;;;;;;;;;;137351;1275;23240;-80
2024/02/23 08:06:42;;;;;;;14.70;9.30;;;;;;;;;;137316;1275;22105;-79
2024/02/23 08:09:45;;;;;;;10.10;8.10;;;;;;;;;;137126;1275;22207;-78
2024/02/23 08:12:47;;;;;;;11.90;8.50;;;;;;;;;;137337;1275;22275;-79
2024/02/23 08:15:50;;;;;;;14.90;9.10;;;;;;;;;;137353;1275;22308;-77
2024/02/23 08:18:52;;;;;;;23.00;10.70;;;;;;;;;;137334;1275;22376;-78
2024/02/23 08:21:55;;;;;;;10.80;9.10;;;;;;;;;;137347;1275;22291;-78
2024/02/23 08:24:57;;;;;;;11.20;9.30;;;;;;;;;;137292;1275;22894;-79
2024/02/23 08:28:02;;;;;;;;;;;;;;;;;;137352;1275;22300;-79
2024/02/23 08:31:05;;;;;;;15.40;10.30;;;;;;;;;;137348;1275;22214;-77
2024/02/23 08:34:07;;;;;;;11.10;9.20;;;;;;;;;;137347;1275;22451;-78
2024/02/23 08:37:10;;;;;;;14.10;10.80;;;;;;;;;;137319;1275;22141;-79
2024/02/23 08:40:12;;;;;;;18.50;11.20;;;;;;;;;;137274;1275;22721;-80
2024/02/23 08:43:15;;;;;;;17.90;10.60;;;;;;;;;;137379;1275;22384;-78
2024/02/23 08:46:18;;;;;;;19.20;12.70;;;;;;;;;;137345;1275;22259;-78
2024/02/23 08:49:20;;;;;;;19.70;12.20;;;;;;;;;;137342;1275;22812;-78
2024/02/23 08:52:23;;;;;;;14.80;11.20;;;;;;;;;;137382;1275;22485;-79
2024/02/23 08:55:25;;;;;;;13.90;10.70;;;;;;;;;;137117;1275;22336;-80
2024/02/23 08:58:28;;;;;;;14.80;11.20;;;;;;;;;;137319;1275;22699;-78
2024/02/23 09:01:31;;;;;;;18.40;10.30;;;;;;;;;;136761;1275;22210;-79
2024/02/23 09:04:33;;;;;;;15.90;11.40;;;;;;;;;;136818;1275;22966;-81
2024/02/23 09:07:35;;;;;;;20.80;12.70;;;;;;;;;;137253;1275;22745;-78
2024/02/23 09:10:38;;;;;;;18.10;10.90;;;;;;;;;;137366;1275;22333;-81
2024/02/23 09:13:42;;;;;;;31.20;22.00;;;;;;;;;;137307;1270;22234;-78
2024/02/23 09:16:46;;;;;;;38.60;27.70;;;;;;;;;;137346;1275;22296;-78
2024/02/23 09:19:48;;;;;;;16.80;11.60;;;;;;;;;;137239;1275;22196;-78
2024/02/23 09:22:52;;;;;;;16.70;11.30;;;;;;;;;;137246;1275;22338;-79
2024/02/23 09:25:55;;;;;;;14.80;10.70;;;;;;;;;;137308;1275;22217;-78
2024/02/23 09:28:57;;;;;;;19.00;11.80;;;;;;;;;;137285;1275;22191;-75
2024/02/23 09:32:00;;;;;;;15.70;10.70;;;;;;;;;;137256;1275;22389;-76
2024/02/23 09:35:03;;;;;;;19.40;10.90;;;;;;;;;;137291;1275;22182;-77
2024/02/23 09:38:06;;;;;;;19.40;13.00;;;;;;;;;;137293;1275;22326;-78
2024/02/23 09:41:08;;;;;;;16.40;10.80;;;;;;;;;;137252;1275;22341;-80
2024/02/23 09:44:11;;;;;;;14.00;9.90;;;;;;;;;;137316;1275;23009;-79
2024/02/23 09:47:14;;;;;;;18.30;13.50;;;;;;;;;;137284;1275;22072;-79
2024/02/23 09:50:16;;;;;;;15.90;9.70;;;;;;;;;;137285;1275;22237;-80
2024/02/23 09:53:19;;;;;;;15.50;10.10;;;;;;;;;;137319;1275;22834;-80
2024/02/23 09:56:23;;;;;;;17.50;11.80;;;;;;;;;;137348;1268;22729;-78
2024/02/23 09:59:28;;;;;;;19.90;12.10;;;;;;;;;;137302;1275;22306;-78
2024/02/23 10:02:31;;;;;;;24.10;15.30;;;;;;;;;;137314;1275;22334;-78
2024/02/23 10:05:34;;;;;;;36.70;21.70;;;;;;;;;;136902;1275;22207;-78
2024/02/23 10:08:38;;;;;;;33.90;22.90;;;;;;;;;;137346;1275;22377;-79
2024/02/23 10:11:41;;;;;;;23.00;16.40;;;;;;;;;;137344;1275;22305;-78
2024/02/23 10:14:43;;;;;;;15.90;12.30;;;;;;;;;;136750;1275;22281;-82
2024/02/23 10:17:46;;;;;;;17.30;11.40;;;;;;;;;;137808;1271;22769;-79
2024/02/23 10:20:50;;;;;;;14.90;10.20;;;;;;;;;;137722;1271;22326;-78
2024/02/23 10:23:52;;;;;;;49.00;33.30;;;;;;;;;;137738;1268;22225;-80
2024/02/23 10:26:55;;;;;;;18.50;14.40;;;;;;;;;;137763;1271;22300;-79
2024/02/23 10:29:57;;;;;;;13.90;11.40;;;;;;;;;;137732;1271;22323;-80
2024/02/23 10:33:00;;;;;;;17.80;11.60;;;;;;;;;;137702;1271;22238;-77
2024/02/23 10:36:03;;;;;;;14.70;9.50;;;;;;;;;;137764;1271;22214;-79
2024/02/23 10:39:05;;;;;;;10.80;6.70;;;;;;;;;;137816;1271;22503;-79
2024/02/23 10:42:08;;;;;;;8.50;6.80;;;;;;;;;;137587;1271;22433;-80
2024/02/23 10:45:10;;;;;;;11.40;8.40;;;;;;;;;;137675;1271;22422;-79
2024/02/23 10:48:14;;;;;;;15.20;10.60;;;;;;;;;;137801;1271;22647;-81
2024/02/23 10:51:17;;;;;;;14.30;9.90;;;;;;;;;;137743;1271;22311;-79
2024/02/23 10:54:20;;;;;;;13.30;9.20;;;;;;;;;;137807;1271;22237;-78
2024/02/23 10:57:22;;;;;;;17.10;11.20;;;;;;;;;;137837;1253;22239;-80
2024/02/23 11:00:25;;;;;;;13.40;8.60;;;;;;;;;;137951;1270;22259;-78
2024/02/23 11:03:28;;;;;;;10.90;7.80;;;;;;;;;;137839;1270;22463;-75
2024/02/23 11:06:30;;;;;;;12.60;9.30;;;;;;;;;;137833;1270;22208;-79
2024/02/23 11:09:33;;;;;;;13.50;9.80;;;;;;;;;;137860;1270;22593;-80
2024/02/23 11:12:36;;;;;;;13.10;9.50;;;;;;;;;;137800;1270;22181;-77
2024/02/23 11:15:40;;;;;;;12.70;9.60;;;;;;;;;;137838;1270;22215;-80
2024/02/23 11:18:43;;;;;;;11.00;8.50;;;;;;;;;;137769;1270;22225;-78
2024/02/23 11:21:45;;;;;;;11.70;8.60;;;;;;;;;;137813;1270;22181;-78
2024/02/23 11:24:48;;;;;;;10.60;8.10;;;;;;;;;;137785;1271;22310;-81
2024/02/23 11:27:51;;;;;;;11.30;8.00;;;;;;;;;;137771;1270;22413;-78
2024/02/23 11:30:53;;;;;;;10.40;7.80;;;;;;;;;;137801;1271;22739;-79
2024/02/23 11:33:56;;;;;;;15.50;8.20;;;;;;;;;;137773;1270;22238;-80
2024/02/23 11:36:59;;;;;;;17.40;9.80;;;;;;;;;;137773;1270;22391;-79
2024/02/23 11:40:02;;;;;;;13.20;9.40;;;;;;;;;;137813;1270;22647;-80
2024/02/23 11:43:05;;;;;;;13.90;10.30;;;;;;;;;;137797;1271;22344;-82
2024/02/23 11:46:07;;;;;;;14.00;10.10;;;;;;;;;;137796;1271;22294;-79
2024/02/23 11:49:10;;;;;;;15.40;10.80;;;;;;;;;;137809;1270;22459;-80
2024/02/23 11:52:12;;;;;;;14.50;9.80;;;;;;;;;;137803;1271;22752;-77
2024/02/23 11:55:16;;;;;;;14.00;10.40;;;;;;;;;;137756;1270;22787;-80
2024/02/23 11:58:19;;;;;;;16.00;10.50;;;;;;;;;;137833;1271;22237;-79
2024/02/23 12:01:21;;;;;;;17.40;11.40;;;;;;;;;;137790;1270;22242;-79
2024/02/23 12:04:24;;;;;;;19.40;13.30;;;;;;;;;;137837;1270;22345;-80
2024/02/23 12:07:28;;;;;;;19.30;13.10;;;;;;;;;;137844;1267;22209;-80
2024/02/23 12:10:31;;;;;;;16.70;11.30;;;;;;;;;;137779;1271;22626;-77
2024/02/23 12:13:34;;;;;;;18.70;11.60;;;;;;;;;;137707;1270;22310;-79
2024/02/23 12:16:38;;;;;;;17.10;11.70;;;;;;;;;;137718;1271;22083;-79
2024/02/23 12:19:40;;;;;;;20.00;10.20;;;;;;;;;;137770;1270;22776;-79
2024/02/23 12:22:43;;;;;;;16.30;10.90;;;;;;;;;;137744;1268;22402;-79
2024/02/23 12:25:46;;;;;;;15.10;9.90;;;;;;;;;;137767;1270;22227;-80
2024/02/23 12:28:48;;;;;;;13.60;9.40;;;;;;;;;;137601;1271;22257;-80
2024/02/23 12:31:52;;;;;;;17.60;10.80;;;;;;;;;;137789;1270;22620;-80
2024/02/23 12:34:55;;;;;;;13.20;9.60;;;;;;;;;;137814;1270;22253;-80
2024/02/23 12:37:57;;;;;;;17.50;10.30;;;;;;;;;;137645;1271;22414;-79
2024/02/23 12:41:00;;;;;;;15.50;10.20;;;;;;;;;;137768;1271;22350;-80
2024/02/23 12:44:02;;;;;;;16.80;10.10;;;;;;;;;;137748;1270;22247;-77
2024/02/23 12:47:05;;;;;;;17.60;12.40;;;;;;;;;;137746;1270;22255;-78
2024/02/23 12:50:08;;;;;;;13.90;9.80;;;;;;;;;;137728;1270;22200;-81
2024/02/23 12:53:10;;;;;;;17.60;11.20;;;;;;;;;;137731;1270;22316;-82
2024/02/23 12:56:13;;;;;;;19.40;10.40;;;;;;;;;;137751;1270;22211;-82
2024/02/23 12:59:15;;;;;;;21.00;12.50;;;;;;;;;;137743;1271;22313;-80
2024/02/23 13:02:18;;;;;;;17.00;11.20;;;;;;;;;;137717;1271;22220;-82
2024/02/23 13:05:23;;;;;;;22.40;12.60;;;;;;;;;;137770;1270;22227;-79
2024/02/23 13:08:26;;;;;;;18.10;10.90;;;;;;;;;;137784;1270;22644;-80
2024/02/23 13:11:29;;;;;;;22.80;12.80;;;;;;;;;;137811;1270;22646;-81
2024/02/23 13:14:31;;;;;;;15.50;10.60;;;;;;;;;;137791;1271;22252;-82
2024/02/23 13:17:34;;;;;;;18.90;10.80;;;;;;;;;;137800;1270;22719;-84
2024/02/23 13:20:36;;;;;;;16.30;10.30;;;;;;;;;;137812;1270;22072;-85
2024/02/23 13:23:39;;;;;;;15.10;10.40;;;;;;;;;;137799;1270;22349;-85
2024/02/23 13:26:42;;;;;;;18.30;10.60;;;;;;;;;;137778;1270;22249;-85
2024/02/23 13:29:44;;;;;;;16.30;9.70;;;;;;;;;;137757;1270;22776;-82
2024/02/23 13:32:47;;;;;;;14.20;9.30;;;;;;;;;;137765;1271;22301;-84
2024/02/23 13:35:49;;;;;;;13.10;9.80;;;;;;;;;;137755;1271;22224;-82
2024/02/23 13:38:52;;;;;;;18.80;11.90;;;;;;;;;;137780;1271;22282;-83
2024/02/23 13:41:55;;;;;;;15.30;9.40;;;;;;;;;;137755;1270;22321;-80
2024/02/23 13:44:57;;;;;;;15.70;10.20;;;;;;;;;;137488;1270;22282;-84
2024/02/23 13:48:00;;;;;;;16.50;10.00;;;;;;;;;;137643;1271;22437;-80
2024/02/23 13:51:03;;;;;;;18.20;10.30;;;;;;;;;;137639;1270;22540;-84
2024/02/23 13:54:05;;;;;;;13.90;9.30;;;;;;;;;;137229;1271;22298;-83
2024/02/23 13:57:08;;;;;;;11.80;8.30;;;;;;;;;;137156;1270;22224;-82
2024/02/23 14:00:12;;;;;;;11.70;8.00;;;;;;;;;;137549;1270;22528;-80
2024/02/23 14:03:15;;;;;;;14.10;8.30;;;;;;;;;;137692;1270;22690;-80
2024/02/23 14:06:18;;;;;;;14.90;9.00;;;;;;;;;;137689;1270;22183;-82
2024/02/23 14:09:23;;;;;;;13.10;8.40;;;;;;;;;;137956;1270;22283;-81
2024/02/23 14:12:25;;;;;;;16.30;10.20;;;;;;;;;;137906;1271;22225;-82
2024/02/23 14:15:28;;;;;;;15.80;10.60;;;;;;;;;;137901;1270;22247;-80
2024/02/23 14:18:32;;;;;;;15.80;9.90;;;;;;;;;;137734;1265;22547;-82
2024/02/23 14:21:35;;;;;;;16.30;9.90;;;;;;;;;;137796;1271;22252;-82
2024/02/23 14:24:38;;;;;;;23.20;10.90;;;;;;;;;;137805;1270;22268;-84
2024/02/23 14:27:40;;;;;;;18.00;9.50;;;;;;;;;;137816;1270;22223;-83
2024/02/23 14:30:43;;;;;;;12.20;9.10;;;;;;;;;;137655;1271;22577;-83
2024/02/23 14:33:46;;;;;;;14.30;7.40;;;;;;;;;;137565;1271;22198;-81
2024/02/23 14:36:48;;;;;;;14.90;8.60;;;;;;;;;;137367;1271;22291;-83
2024/02/23 14:39:52;;;;;;;13.30;8.20;;;;;;;;;;137825;1271;22277;-82
2024/02/23 14:42:54;;;;;;;12.40;8.60;;;;;;;;;;137837;1254;22230;-83
2024/02/23 14:45:57;;;;;;;13.00;9.30;;;;;;;;;;137328;1271;22268;-81
2024/02/23 14:48:59;;;;;;;19.80;9.90;;;;;;;;;;137795;1270;22359;-80
2024/02/23 14:52:02;;;;;;;15.30;9.20;;;;;;;;;;137769;1271;22221;-80
2024/02/23 14:55:05;;;;;;;12.90;9.20;;;;;;;;;;136956;1267;22481;-80
2024/02/23 14:58:07;;;;;;;17.00;10.70;;;;;;;;;;137801;1270;22261;-79
2024/02/23 15:01:10;;;;;;;15.80;10.00;;;;;;;;;;137713;1271;23200;-80
2024/02/23 15:04:12;;;;;;;56.10;36.10;;;;;;;;;;137797;1270;22183;-81
2024/02/23 15:07:15;;;;;;;23.20;13.70;;;;;;;;;;137800;1271;22335;-82
2024/02/23 15:10:17;;;;;;;20.50;12.40;;;;;;;;;;137297;1271;22485;-81
2024/02/23 15:13:20;;;;;;;15.70;11.30;;;;;;;;;;137683;1271;22336;-82
2024/02/23 15:16:23;;;;;;;17.20;10.50;;;;;;;;;;137380;1270;22235;-83
2024/02/23 15:19:27;;;;;;;15.10;9.70;;;;;;;;;;137360;1270;22569;-82
2024/02/23 15:22:29;;;;;;;16.30;9.80;;;;;;;;;;137711;1270;23030;-82
2024/02/23 15:25:32;;;;;;;16.00;9.30;;;;;;;;;;136913;1271;22561;-82
2024/02/23 15:28:35;;;;;;;16.20;10.10;;;;;;;;;;137346;1270;22514;-83
2024/02/23 15:31:39;;;;;;;20.60;12.10;;;;;;;;;;137754;1270;22270;-82
2024/02/23 15:34:42;;;;;;;18.00;11.70;;;;;;;;;;137403;1271;22417;-82
2024/02/23 15:37:45;;;;;;;19.70;12.90;;;;;;;;;;137286;1260;22404;-82
2024/02/23 15:40:48;;;;;;;21.60;13.00;;;;;;;;;;137653;1271;22547;-79
2024/02/23 15:43:50;;;;;;;18.50;12.20;;;;;;;;;;137718;1270;22399;-82
2024/02/23 15:46:53;;;;;;;24.50;14.70;;;;;;;;;;137275;1271;22290;-83
2024/02/23 15:49:55;;;;;;;22.90;14.40;;;;;;;;;;137337;1271;22728;-82
2024/02/23 15:52:58;;;;;;;20.00;13.60;;;;;;;;;;137817;1271;22361;-81
2024/02/23 15:56:00;;;;;;;27.30;15.30;;;;;;;;;;137259;1271;22467;-82
2024/02/23 15:59:07;;;;;;;20.50;13.10;;;;;;;;;;137804;1270;22225;-80
2024/02/23 16:02:09;;;;;;;19.10;12.10;;;;;;;;;;137598;1271;22561;-81
2024/02/23 16:05:12;;;;;;;18.00;12.70;;;;;;;;;;137442;1270;22277;-81
2024/02/23 16:08:14;;;;;;;22.00;13.60;;;;;;;;;;137300;1270;22889;-80
2024/02/23 16:11:17;;;;;;;22.20;13.70;;;;;;;;;;137812;1271;22534;-80
2024/02/23 16:14:19;;;;;;;22.30;14.60;;;;;;;;;;137799;1271;22697;-80
2024/02/23 16:17:22;;;;;;;32.20;17.50;;;;;;;;;;137410;1270;22466;-83
2024/02/23 16:20:25;;;;;;;34.00;20.60;;;;;;;;;;137277;1270;22213;-81
2024/02/23 16:23:28;;;;;;;38.00;21.10;;;;;;;;;;137744;1270;22825;-84
2024/02/23 16:26:34;;;;;;;73.70;43.50;;;;;;;;;;137336;1271;22820;-82
2024/02/23 16:29:37;;;;;;;39.90;23.60;;;;;;;;;;137432;1270;22350;-82
2024/02/23 16:32:40;;;;;;;40.80;22.30;;;;;;;;;;137656;1264;22567;-83
2024/02/23 16:35:42;;;;;;;42.40;24.00;;;;;;;;;;137655;1270;22825;-84
2024/02/23 16:38:45;;;;;;;38.60;23.90;;;;;;;;;;137397;1270;23010;-83
2024/02/23 16:41:47;;;;;;;39.10;22.40;;;;;;;;;;137395;1270;23192;-84
2024/02/23 16:44:50;;;;;;;36.30;21.40;;;;;;;;;;137824;1270;22674;-82
2024/02/23 16:47:52;;;;;;;35.70;21.00;;;;;;;;;;137293;1271;22416;-84
2024/02/23 16:50:56;;;;;;;32.40;19.30;;;;;;;;;;137233;1270;22278;-80
2024/02/23 16:53:58;;;;;;;32.20;19.50;;;;;;;;;;137714;1270;22264;-84
2024/02/23 16:57:01;;;;;;;32.20;19.30;;;;;;;;;;136975;1270;250567;-84
2024/02/23 17:00:03;;;;;;;31.40;19.70;;;;;;;;;;137437;1270;22149;-82
2024/02/23 17:03:06;;;;;;;31.50;20.10;;;;;;;;;;137604;1270;23054;-83
2024/02/23 17:06:09;;;;;;;38.30;21.60;;;;;;;;;;137515;1270;22750;-83
2024/02/23 17:09:11;;;;;;;28.90;19.80;;;;;;;;;;137384;1270;23133;-82
2024/02/23 17:12:18;;;;;;;27.70;19.90;;;;;;;;;;137340;1271;25355;-84
2024/02/23 17:15:20;;;;;;;29.80;19.30;;;;;;;;;;137778;1271;22322;-83
2024/02/23 17:18:23;;;;;;;29.10;18.10;;;;;;;;;;137349;1271;22659;-80
2024/02/23 17:21:26;;;;;;;27.20;16.60;;;;;;;;;;137335;1271;22199;-81
2024/02/23 17:24:28;;;;;;;27.30;16.20;;;;;;;;;;137724;1271;22357;-81
2024/02/23 17:27:31;;;;;;;32.50;19.80;;;;;;;;;;137482;1271;22435;-82
2024/02/23 17:30:33;;;;;;;30.40;17.20;;;;;;;;;;137385;1270;22427;-81
2024/02/23 17:33:36;;;;;;;18.30;12.20;;;;;;;;;;137648;1270;22611;-82
2024/02/23 17:36:42;;;;;;;18.60;11.10;;;;;;;;;;137616;1270;22338;-82
2024/02/23 17:39:45;;;;;;;229.40;150.10;;;;;;;;;;137505;1270;23027;-82
2024/02/23 17:42:47;;;;;;;35.40;22.40;;;;;;;;;;137288;1270;22997;-81
2024/02/23 17:45:50;;;;;;;23.90;16.00;;;;;;;;;;137782;1270;22372;-81
2024/02/23 17:48:52;;;;;;;17.50;12.20;;;;;;;;;;137796;1270;22209;-81